createdAt,value
2023-03-06T00:01:29.270Z,455.00
2023-03-06T00:05:29.213Z,458.00
2023-03-06T00:09:29.194Z,456.00
2023-03-06T00:13:29.171Z,457.00
2023-03-06T00:17:29.146Z,452.00
2023-03-06T00:21:29.088Z,455.00
2023-03-06T00:25:29.066Z,457.00
2023-03-06T00:29:28.998Z,456.00
2023-03-06T00:33:29.050Z,450.00
2023-03-06T00:37:29.190Z,455.00
2023-03-06T00:41:29.291Z,457.00
2023-03-06T00:45:29.590Z,454.00
2023-03-06T00:49:29.673Z,455.00
2023-03-06T00:53:29.803Z,455.00
2023-03-06T00:57:29.940Z,452.00
2023-03-06T01:01:30.098Z,451.00
2023-03-06T01:05:30.206Z,453.00
2023-03-06T01:09:30.294Z,453.00
2023-03-06T01:13:30.530Z,453.00
2023-03-06T01:17:30.537Z,448.00
2023-03-06T01:21:30.682Z,448.00
2023-03-06T01:25:30.715Z,449.00
2023-03-06T01:29:30.793Z,448.00
2023-03-06T01:33:30.882Z,450.00
2023-03-06T01:37:30.895Z,451.00
2023-03-06T01:41:30.980Z,454.00
2023-03-06T01:45:30.989Z,447.00
2023-03-06T01:49:30.957Z,449.00
2023-03-06T01:53:30.965Z,442.00
2023-03-06T01:57:30.999Z,445.00
2023-03-06T02:01:30.986Z,446.00
2023-03-06T02:05:30.947Z,444.00
2023-03-06T02:09:30.967Z,443.00
2023-03-06T02:13:30.967Z,447.00
2023-03-06T02:17:31.067Z,451.00
2023-03-06T02:21:31.046Z,454.00
2023-03-06T02:25:31.021Z,454.00
2023-03-06T02:29:31.032Z,452.00
2023-03-06T02:33:31.013Z,451.00
2023-03-06T02:37:31.014Z,453.00
2023-03-06T02:41:31.035Z,449.00
2023-03-06T02:45:31.035Z,448.00
2023-03-06T02:49:31.004Z,447.00
2023-03-06T02:53:30.989Z,451.00
2023-03-06T02:57:31.018Z,450.00
2023-03-06T03:01:31.044Z,446.00
2023-03-06T03:05:31.022Z,446.00
2023-03-06T03:09:31.010Z,450.00
2023-03-06T03:13:31.033Z,446.00
2023-03-06T03:17:31.044Z,442.00
2023-03-06T03:21:31.103Z,444.00
2023-03-06T03:25:31.105Z,445.00
2023-03-06T03:29:31.098Z,441.00
2023-03-06T03:33:31.201Z,447.00
2023-03-06T03:37:31.206Z,442.00
2023-03-06T03:41:31.623Z,443.00
2023-03-06T03:45:31.199Z,446.00
2023-03-06T03:49:31.284Z,448.00
2023-03-06T03:53:31.280Z,445.00
2023-03-06T03:57:31.331Z,452.00
2023-03-06T04:01:31.563Z,455.00
2023-03-06T04:05:31.415Z,457.00
2023-03-06T04:09:31.450Z,452.00
2023-03-06T04:13:31.496Z,449.00
2023-03-06T04:17:31.546Z,447.00
2023-03-06T04:21:31.632Z,450.00
2023-03-06T04:25:31.675Z,450.00
2023-03-06T04:29:31.684Z,449.00
2023-03-06T04:33:31.701Z,452.00
2023-03-06T04:37:31.721Z,452.00
2023-03-06T04:41:31.747Z,446.00
2023-03-06T04:45:31.798Z,445.00
2023-03-06T04:49:31.825Z,444.00
2023-03-06T04:53:31.822Z,440.00
2023-03-06T04:57:31.909Z,440.00
2023-03-06T05:01:31.978Z,446.00
2023-03-06T05:05:32.142Z,452.00
2023-03-06T05:09:32.186Z,452.00
2023-03-06T05:13:32.266Z,450.00
2023-03-06T05:17:32.312Z,453.00
2023-03-06T05:21:32.366Z,453.00
2023-03-06T05:25:32.345Z,450.00
2023-03-06T05:29:32.425Z,454.00
2023-03-06T05:33:32.445Z,451.00
2023-03-06T05:37:32.495Z,447.00
2023-03-06T05:41:32.523Z,450.00
2023-03-06T05:45:32.568Z,452.00
2023-03-06T05:49:32.565Z,449.00
2023-03-06T05:53:32.641Z,450.00
2023-03-06T05:57:32.652Z,451.00
2023-03-06T06:01:32.661Z,455.00
2023-03-06T06:05:32.694Z,454.00
2023-03-06T06:09:32.747Z,454.00
2023-03-06T06:13:32.715Z,448.00
2023-03-06T06:17:32.753Z,448.00
2023-03-06T06:21:32.756Z,445.00
2023-03-06T06:25:32.762Z,448.00
2023-03-06T06:29:32.797Z,451.00
2023-03-06T06:33:32.768Z,447.00
2023-03-06T06:37:32.803Z,469.00
2023-03-06T06:41:51.090Z,495.00
2023-03-06T06:45:33.788Z,543.00
2023-03-06T06:49:33.197Z,581.00
2023-03-06T06:53:32.681Z,710.00
2023-03-06T06:57:32.687Z,656.00
2023-03-06T07:01:32.818Z,837.00
2023-03-06T07:05:32.810Z,816.00
2023-03-06T07:09:33.205Z,831.00
2023-03-06T07:13:33.191Z,855.00
2023-03-06T07:17:32.725Z,876.00
2023-03-06T07:21:32.711Z,899.00
2023-03-06T07:25:32.690Z,909.00
2023-03-06T07:29:32.717Z,914.00
2023-03-06T07:33:32.595Z,930.00
2023-03-06T07:37:32.731Z,948.00
2023-03-06T07:41:32.528Z,962.00
2023-03-06T07:45:32.717Z,1140.00
2023-03-06T07:49:32.478Z,1143.00
2023-03-06T07:53:32.704Z,1222.00
2023-03-06T07:57:32.704Z,1276.00
2023-03-06T08:01:32.374Z,1293.00
2023-03-06T08:05:32.397Z,1325.00
2023-03-06T08:09:32.384Z,1345.00
2023-03-06T08:13:32.725Z,1383.00
2023-03-06T08:17:32.359Z,1428.00
2023-03-06T08:21:32.255Z,1444.00
2023-03-06T08:25:32.224Z,1456.00
2023-03-06T08:29:32.438Z,1451.00
2023-03-06T08:33:32.141Z,1472.00
2023-03-06T08:37:32.146Z,1474.00
2023-03-06T08:41:32.243Z,1521.00
2023-03-06T08:45:32.396Z,1444.00
2023-03-06T08:49:32.255Z,1370.00
2023-03-06T08:53:42.534Z,1009.00
2023-03-06T08:57:32.939Z,999.00
2023-03-06T09:01:32.249Z,996.00
2023-03-06T09:05:31.861Z,995.00
2023-03-06T09:09:31.844Z,990.00
2023-03-06T09:13:31.908Z,970.00
2023-03-06T09:17:31.918Z,952.00
2023-03-06T09:21:31.857Z,932.00
2023-03-06T09:25:31.815Z,937.00
2023-03-06T09:29:31.813Z,935.00
2023-03-06T09:33:31.735Z,910.00
2023-03-06T09:37:31.762Z,938.00
2023-03-06T09:41:31.746Z,1059.00
2023-03-06T09:45:31.642Z,1133.00
2023-03-06T09:49:31.613Z,1205.00
2023-03-06T09:53:31.756Z,1306.00
2023-03-06T09:57:31.763Z,1394.00
2023-03-06T10:01:31.514Z,1429.00
2023-03-06T10:05:31.475Z,1373.00
2023-03-06T10:09:31.456Z,1421.00
2023-03-06T10:13:31.419Z,1431.00
2023-03-06T10:17:31.777Z,1438.00
2023-03-06T10:21:31.515Z,1466.00
2023-03-06T10:25:32.267Z,1495.00
2023-03-06T10:29:31.533Z,1505.00
2023-03-06T10:33:31.761Z,1518.00
2023-03-06T10:37:32.654Z,1555.00
2023-03-06T10:41:32.295Z,1573.00
2023-03-06T10:45:47.292Z,1597.00
2023-03-06T10:49:33.307Z,1585.00
2023-03-06T10:53:32.185Z,1614.00
2023-03-06T10:57:32.134Z,1633.00
2023-03-06T11:01:32.343Z,1635.00
2023-03-06T11:05:32.056Z,1648.00
2023-03-06T11:09:32.059Z,1622.00
2023-03-06T11:13:31.986Z,1636.00
2023-03-06T11:17:32.003Z,1661.00
2023-03-06T11:21:32.287Z,1659.00
2023-03-06T11:25:31.894Z,1661.00
2023-03-06T11:29:34.298Z,1708.00
2023-03-06T11:33:31.796Z,1707.00
2023-03-06T11:37:31.804Z,1721.00
2023-03-06T11:41:31.738Z,1692.00
2023-03-06T11:45:31.789Z,1715.00
2023-03-06T11:49:31.681Z,1672.00
2023-03-06T11:53:31.611Z,1502.00
2023-03-06T11:57:31.575Z,1353.00
2023-03-06T12:01:31.538Z,1279.00
2023-03-06T12:05:31.561Z,1198.00
2023-03-06T12:09:31.487Z,1154.00
2023-03-06T12:13:31.477Z,1129.00
2023-03-06T12:17:31.802Z,1096.00
2023-03-06T12:21:31.362Z,1092.00
2023-03-06T12:25:31.333Z,1047.00
2023-03-06T12:29:31.368Z,1032.00
2023-03-06T12:33:31.232Z,1019.00
2023-03-06T12:37:31.338Z,914.00
2023-03-06T12:41:31.193Z,850.00
2023-03-06T12:45:31.300Z,864.00
2023-03-06T12:49:32.995Z,894.00
2023-03-06T12:53:31.309Z,958.00
2023-03-06T12:57:31.129Z,973.00
2023-03-06T13:01:31.179Z,973.00
2023-03-06T13:05:31.311Z,997.00
2023-03-06T13:09:31.315Z,995.00
2023-03-06T13:13:31.272Z,1012.00
2023-03-06T13:17:31.216Z,990.00
2023-03-06T13:21:31.350Z,1007.00
2023-03-06T13:25:31.304Z,842.00
2023-03-06T13:29:31.122Z,794.00
2023-03-06T13:33:31.088Z,734.00
2023-03-06T13:37:31.062Z,694.00
2023-03-06T13:41:31.099Z,636.00
2023-03-06T13:45:30.988Z,597.00
2023-03-06T13:49:30.948Z,576.00
2023-03-06T13:53:30.941Z,554.00
2023-03-06T13:57:30.890Z,537.00
2023-03-06T14:01:30.903Z,521.00
2023-03-06T14:05:30.782Z,506.00
2023-03-06T14:09:30.754Z,493.00
2023-03-06T14:13:38.411Z,486.00
2023-03-06T14:17:31.708Z,482.00
2023-03-06T14:21:30.665Z,479.00
2023-03-06T14:25:30.722Z,470.00
2023-03-06T14:29:30.697Z,466.00
2023-03-06T14:33:30.633Z,458.00
2023-03-06T14:37:30.642Z,453.00
2023-03-06T14:41:30.587Z,449.00
2023-03-06T14:45:30.559Z,444.00
2023-03-06T14:49:30.513Z,448.00
2023-03-06T14:53:30.476Z,445.00
2023-03-06T14:57:30.428Z,451.00
2023-03-06T15:01:30.485Z,449.00
2023-03-06T15:05:30.350Z,444.00
2023-03-06T15:09:30.359Z,443.00
2023-03-06T15:13:30.400Z,447.00
2023-03-06T15:17:30.245Z,462.00
2023-03-06T15:21:30.202Z,483.00
2023-03-06T15:25:30.207Z,504.00
2023-03-06T15:29:30.142Z,523.00
2023-03-06T15:33:30.113Z,536.00
2023-03-06T15:37:30.077Z,542.00
2023-03-06T15:41:30.026Z,544.00
2023-03-06T15:45:30.064Z,534.00
2023-03-06T15:49:29.992Z,521.00
2023-03-06T15:53:29.946Z,511.00
2023-03-06T15:57:29.924Z,492.00
2023-03-06T16:01:29.981Z,474.00
2023-03-06T16:05:29.877Z,473.00
2023-03-06T16:09:29.992Z,472.00
2023-03-06T16:13:30.070Z,467.00
2023-03-06T16:17:30.105Z,458.00
2023-03-06T16:21:30.214Z,461.00
2023-03-06T16:25:30.316Z,463.00
2023-03-06T16:29:30.452Z,457.00
2023-03-06T16:33:30.612Z,457.00
2023-03-06T16:37:30.791Z,445.00
2023-03-06T16:41:31.000Z,446.00
2023-03-06T16:45:31.139Z,446.00
2023-03-06T16:49:31.321Z,438.00
2023-03-06T16:53:31.468Z,438.00
2023-03-06T16:57:32.391Z,443.00
2023-03-06T17:01:32.005Z,443.00
2023-03-06T17:05:31.990Z,443.00
2023-03-06T17:09:32.182Z,443.00
2023-03-06T17:13:32.355Z,437.00
2023-03-06T17:17:32.597Z,437.00
2023-03-06T17:21:32.537Z,439.00
2023-03-06T17:25:32.529Z,440.00
2023-03-06T17:29:32.502Z,435.00
2023-03-06T17:33:32.469Z,440.00
2023-03-06T17:37:32.405Z,440.00
2023-03-06T17:41:32.412Z,449.00
2023-03-06T17:45:32.350Z,450.00
2023-03-06T17:49:32.307Z,435.00
2023-03-06T17:53:32.283Z,437.00
2023-03-06T17:57:32.305Z,438.00
2023-03-06T18:01:32.193Z,436.00
2023-03-06T18:05:32.192Z,432.00
2023-03-06T18:09:32.280Z,439.00
2023-03-06T18:13:32.404Z,433.00
2023-03-06T18:17:32.549Z,437.00
2023-03-06T18:21:32.714Z,439.00
2023-03-06T18:25:32.899Z,438.00
2023-03-06T18:29:32.852Z,434.00
2023-03-06T18:33:32.861Z,437.00
2023-03-06T18:37:32.835Z,439.00
2023-03-06T18:41:32.778Z,439.00
2023-03-06T18:45:32.772Z,437.00
2023-03-06T18:49:32.732Z,437.00
2023-03-06T18:53:32.658Z,437.00
2023-03-06T18:57:32.649Z,435.00
2023-03-06T19:01:32.632Z,438.00
2023-03-06T19:05:32.567Z,443.00
2023-03-06T19:09:32.519Z,449.00
2023-03-06T19:13:32.514Z,450.00
2023-03-06T19:17:32.443Z,442.00
2023-03-06T19:21:32.437Z,442.00
2023-03-06T19:25:32.383Z,441.00
2023-03-06T19:29:32.349Z,448.00
2023-03-06T19:33:32.362Z,449.00
2023-03-06T19:37:32.268Z,449.00
2023-03-06T19:41:32.209Z,446.00
2023-03-06T19:45:32.279Z,445.00
2023-03-06T19:49:32.136Z,454.00
2023-03-06T19:53:32.275Z,451.00
2023-03-06T19:57:32.425Z,444.00
2023-03-06T20:01:32.644Z,447.00
2023-03-06T20:05:32.702Z,449.00
2023-03-06T20:09:32.838Z,452.00
2023-03-06T20:13:32.972Z,455.00
2023-03-06T20:17:33.087Z,454.00
2023-03-06T20:21:33.232Z,453.00
2023-03-06T20:25:33.363Z,456.00
2023-03-06T20:29:33.530Z,451.00
2023-03-06T20:33:33.715Z,457.00
2023-03-06T20:37:33.920Z,456.00
2023-03-06T20:41:34.151Z,446.00
2023-03-06T20:45:34.372Z,453.00
2023-03-06T20:49:34.579Z,447.00
2023-03-06T20:53:34.790Z,446.00
2023-03-06T20:57:34.976Z,449.00
2023-03-06T21:01:34.992Z,448.00
2023-03-06T21:05:34.980Z,446.00
2023-03-06T21:09:34.870Z,446.00
2023-03-06T21:13:34.858Z,447.00
2023-03-06T21:17:34.794Z,446.00
2023-03-06T21:21:34.793Z,448.00
2023-03-06T21:25:34.749Z,441.00
2023-03-06T21:29:34.699Z,444.00
2023-03-06T21:33:34.672Z,442.00
2023-03-06T21:37:34.661Z,446.00
2023-03-06T21:41:34.771Z,444.00
2023-03-06T21:45:34.934Z,440.00
2023-03-06T21:49:34.907Z,442.00
2023-03-06T21:53:34.813Z,441.00
2023-03-06T21:57:34.782Z,442.00
2023-03-06T22:01:34.729Z,448.00
2023-03-06T22:05:34.715Z,440.00
2023-03-06T22:09:34.672Z,447.00
2023-03-06T22:13:34.670Z,449.00
2023-03-06T22:17:34.631Z,450.00
2023-03-06T22:21:34.601Z,451.00
2023-03-06T22:25:34.510Z,446.00
2023-03-06T22:29:34.500Z,450.00
2023-03-06T22:33:34.445Z,451.00
2023-03-06T22:37:34.456Z,449.00
2023-03-06T22:41:34.394Z,452.00
2023-03-06T22:45:34.746Z,451.00
2023-03-06T22:49:34.310Z,449.00
2023-03-06T22:53:34.290Z,451.00
2023-03-06T22:57:34.266Z,448.00
2023-03-06T23:01:34.290Z,447.00
2023-03-06T23:05:34.412Z,447.00
2023-03-06T23:09:34.653Z,443.00
2023-03-06T23:13:34.612Z,446.00
2023-03-06T23:17:34.529Z,443.00
2023-03-06T23:21:34.529Z,450.00
2023-03-06T23:25:34.488Z,452.00
2023-03-06T23:29:34.448Z,447.00
2023-03-06T23:33:34.436Z,447.00
2023-03-06T23:37:34.397Z,444.00
2023-03-06T23:41:34.349Z,450.00
2023-03-06T23:45:34.327Z,450.00
2023-03-06T23:49:34.281Z,449.00
2023-03-06T23:53:34.235Z,453.00
2023-03-06T23:57:34.183Z,449.00
